Time;durP1;ratioP1;P1;durP2;ratioP2;P2;SDS_P1;SDS_P2;PMS_P1;PMS_P2;Temp;Humidity;BMP_temperature;BMP_pressure;BME280_temperature;BME280_humidity;BME280_pressure;Samples;Min_cycle;Max_cycle;Signal;HPM_P1;HPM_P2
2022/02/24 00:00:09;;;;;;;23.83;9.90;;;;;;;1.15;72.93;101260.86;1619688;88;21213;-69
2022/02/24 00:02:37;;;;;;;30.37;10.53;;;;;;;1.13;72.99;101269.28;1604607;89;21030;-69
2022/02/24 00:05:04;;;;;;;24.55;8.55;;;;;;;1.12;73.01;101270.24;1619782;88;21023;-69
2022/02/24 00:07:30;;;;;;;28.67;10.95;;;;;;;1.14;73.07;101268.36;1604406;88;21534;-69
2022/02/24 00:09:57;;;;;;;37.05;12.20;;;;;;;1.13;73.07;101271.91;1620092;88;21585;-69
2022/02/24 00:12:23;;;;;;;51.85;18.48;;;;;;;1.07;73.10;101273.59;1619704;88;21574;-69
2022/02/24 00:14:50;;;;;;;32.73;12.78;;;;;;;1.06;73.12;101278.45;1620044;88;21487;-69
2022/02/24 00:17:16;;;;;;;29.72;10.15;;;;;;;1.05;73.15;101289.91;1604869;88;21022;-69
2022/02/24 00:19:42;;;;;;;23.40;8.70;;;;;;;1.08;73.19;101285.80;1604700;89;21041;-69
2022/02/24 00:22:08;;;;;;;23.12;8.58;;;;;;;1.15;73.21;101283.20;1619986;88;20980;-69
2022/02/24 00:24:34;;;;;;;27.00;7.60;;;;;;;1.20;73.25;101285.07;1619925;88;21194;-69
2022/02/24 00:27:00;;;;;;;28.40;8.23;;;;;;;1.25;73.27;101281.72;1619752;88;20912;-69
2022/02/24 00:29:26;;;;;;;32.13;10.43;;;;;;;1.29;73.32;101275.36;1631353;87;21025;-69
2022/02/24 00:31:52;;;;;;;30.27;10.28;;;;;;;1.31;73.37;101274.79;1632672;87;21057;-69
2022/02/24 00:34:22;;;;;;;29.35;9.05;;;;;;;1.32;73.42;101277.80;1632669;87;21029;-69
2022/02/24 00:36:46;;;;;;;25.68;10.18;;;;;;;1.32;73.48;101268.61;1632585;87;21247;-69
2022/02/24 00:39:12;;;;;;;28.05;10.08;;;;;;;1.32;73.53;101266.45;1632634;87;21072;-69
2022/02/24 00:41:38;;;;;;;33.02;11.57;;;;;;;1.29;73.56;101259.59;1632327;87;21037;-69
2022/02/24 00:44:04;;;;;;;24.72;9.73;;;;;;;1.27;73.58;101261.45;1632707;87;21082;-70
2022/02/24 00:46:30;;;;;;;28.07;10.80;;;;;;;1.25;73.61;101260.70;1632657;87;21065;-70
2022/02/24 00:48:56;;;;;;;27.00;9.55;;;;;;;1.20;73.63;101265.37;1632650;87;21157;-70
2022/02/24 00:51:23;;;;;;;25.92;9.70;;;;;;;1.14;73.67;101260.48;1632527;87;21033;-69
2022/02/24 00:53:49;;;;;;;24.45;9.83;;;;;;;1.12;73.69;101262.36;1632575;87;21025;-69
2022/02/24 00:56:15;;;;;;;23.87;8.50;;;;;;;1.09;73.70;101253.31;1639484;86;21013;-70
2022/02/24 00:58:42;;;;;;;22.82;8.98;;;;;;;1.08;73.75;101252.97;1657404;85;21107;-69
2022/02/24 01:01:08;;;;;;;25.50;10.18;;;;;;;1.09;73.77;101259.06;1657896;86;21221;-69
2022/02/24 01:03:34;;;;;;;25.43;8.58;;;;;;;1.09;73.81;101254.63;1650314;86;21069;-69
2022/02/24 01:06:00;;;;;;;32.85;10.08;;;;;;;1.09;73.83;101246.75;1629622;88;20942;-69
2022/02/24 01:08:26;;;;;;;33.53;11.48;;;;;;;1.11;73.88;101244.05;1627226;88;21022;-70
2022/02/24 01:10:52;;;;;;;26.90;10.40;;;;;;;1.14;73.93;101246.03;1627213;87;21046;-69
2022/02/24 01:13:19;;;;;;;24.98;10.03;;;;;;;1.16;73.96;101236.77;1627068;88;21554;-70
2022/02/24 01:15:45;;;;;;;24.05;8.98;;;;;;;1.17;73.98;101243.22;1627174;86;21574;-70
2022/02/24 01:18:11;;;;;;;26.33;9.48;;;;;;;1.17;74.01;101230.09;1627296;88;21121;-70
2022/02/24 01:20:38;;;;;;;27.52;7.92;;;;;;;1.15;74.04;101231.97;1653609;86;21104;-70
2022/02/24 01:23:05;;;;;;;32.03;9.58;;;;;;;1.13;74.08;101232.52;1657830;86;21147;-70
2022/02/24 01:25:32;;;;;;;28.38;7.72;;;;;;;1.12;74.09;101222.97;1657086;85;21741;-70
2022/02/24 01:28:00;;;;;;;26.75;8.28;;;;;;;1.10;74.11;101219.56;1657479;86;21092;-69
2022/02/24 01:30:26;;;;;;;21.12;7.10;;;;;;;1.11;74.13;101210.76;1657732;86;21024;-70
2022/02/24 01:32:52;;;;;;;25.02;7.30;;;;;;;1.12;74.15;101208.98;1657754;85;21055;-70
2022/02/24 01:35:18;;;;;;;27.00;7.35;;;;;;;1.12;74.18;101205.89;1657791;86;21037;-69
2022/02/24 01:37:45;;;;;;;21.48;7.40;;;;;;;1.13;74.22;101205.39;1657239;86;21112;-69
2022/02/24 01:40:12;;;;;;;22.87;7.55;;;;;;;1.13;74.27;101200.99;1657758;86;21151;-69
2022/02/24 01:42:38;;;;;;;25.40;7.42;;;;;;;1.13;74.29;101190.48;1657602;86;21048;-69
2022/02/24 01:45:06;;;;;;;27.55;7.80;;;;;;;1.13;74.31;101189.17;1657750;86;21588;-69
2022/02/24 01:47:34;;;;;;;25.15;8.28;;;;;;;1.12;74.36;101190.13;1657792;86;21095;-69
2022/02/24 01:50:00;;;;;;;29.18;8.88;;;;;;;1.10;74.38;101185.42;1657992;86;21685;-69
2022/02/24 01:52:26;;;;;;;24.20;7.40;;;;;;;1.09;74.40;101181.09;1657701;86;21064;-69
2022/02/24 01:54:52;;;;;;;17.98;6.60;;;;;;;1.07;74.42;101178.19;1657628;86;21084;-69
2022/02/24 01:57:19;;;;;;;22.55;7.17;;;;;;;1.05;74.44;101176.98;1657713;85;21032;-70
2022/02/24 01:59:46;;;;;;;20.77;7.03;;;;;;;1.06;74.47;101178.66;1657412;86;21021;-69
2022/02/24 02:02:14;;;;;;;28.07;8.28;;;;;;;1.08;74.48;101165.44;1657724;86;21193;-69
2022/02/24 02:04:40;;;;;;;22.42;7.40;;;;;;;1.11;74.50;101171.36;1656612;86;21016;-69
2022/02/24 02:07:06;;;;;;;23.57;8.15;;;;;;;1.13;74.53;101163.38;1658014;86;20973;-69
2022/02/24 02:09:32;;;;;;;29.07;8.68;;;;;;;1.10;74.55;101163.09;1657847;86;21533;-69
2022/02/24 02:11:58;;;;;;;23.60;7.85;;;;;;;1.07;74.57;101159.34;1650365;86;21017;-69
2022/02/24 02:14:24;;;;;;;25.55;7.75;;;;;;;1.05;74.59;101161.23;1629907;88;21807;-69
2022/02/24 02:16:51;;;;;;;23.22;7.47;;;;;;;1.02;74.63;101154.00;1606784;89;21021;-70
2022/02/24 02:19:18;;;;;;;25.82;7.35;;;;;;;1.01;74.65;101147.89;1607146;89;21070;-69
2022/02/24 02:21:44;;;;;;;25.20;8.68;;;;;;;1.00;74.66;101146.20;1637069;86;21098;-69
2022/02/24 02:24:10;;;;;;;21.40;6.67;;;;;;;0.96;74.65;101146.00;1659584;86;21047;-69
2022/02/24 02:26:36;;;;;;;19.40;7.08;;;;;;;0.97;74.68;101138.50;1659767;86;21483;-69
2022/02/24 02:29:04;;;;;;;22.60;7.60;;;;;;;0.96;74.69;101131.55;1634383;87;21128;-69
2022/02/24 02:31:30;;;;;;;20.72;7.05;;;;;;;0.97;74.71;101136.73;1648363;86;21142;-69
2022/02/24 02:34:08;;;;;;;18.67;8.25;;;;;;;0.98;74.74;101126.61;1632372;86;21035;-69
2022/02/24 02:36:35;;;;;;;24.85;8.00;;;;;;;0.99;74.76;101127.42;1607142;89;21537;-69
2022/02/24 02:39:01;;;;;;;18.82;8.15;;;;;;;0.98;74.81;101123.14;1607083;89;21276;-69
2022/02/24 02:41:29;;;;;;;23.87;8.13;;;;;;;0.98;74.83;101120.51;1607107;89;21081;-69
2022/02/24 02:43:55;;;;;;;26.40;8.60;;;;;;;0.98;74.85;101120.51;1607055;89;21128;-69
2022/02/24 02:46:22;;;;;;;25.32;7.97;;;;;;;0.96;74.87;101114.02;1607177;89;21537;-69
2022/02/24 02:48:48;;;;;;;19.73;7.60;;;;;;;0.95;74.89;101118.07;1607230;89;20991;-69
2022/02/24 02:51:14;;;;;;;22.40;8.18;;;;;;;0.92;74.89;101111.20;1609235;87;21043;-69
2022/02/24 02:53:40;;;;;;;24.07;8.55;;;;;;;0.90;74.91;101108.30;1617207;86;21151;-69
2022/02/24 02:56:06;;;;;;;22.40;7.78;;;;;;;0.85;74.92;101099.83;1657518;86;21021;-69
2022/02/24 03:01:20;;;;;;;23.00;7.72;;;;;;;0.82;74.94;101093.45;1799161;78;22443;-70
2022/02/24 03:03:46;;;;;;;20.17;7.28;;;;;;;0.73;74.95;101100.11;1788717;80;21056;-70
2022/02/24 03:06:12;;;;;;;25.77;9.08;;;;;;;0.69;74.95;101095.13;1788764;80;21455;-70
2022/02/24 03:08:38;;;;;;;24.63;8.33;;;;;;;0.67;74.98;101087.82;1788812;80;20987;-70
2022/02/24 03:11:04;;;;;;;36.38;14.05;;;;;;;0.67;75.01;101086.52;1788742;80;20924;-70
2022/02/24 03:13:30;;;;;;;36.20;14.40;;;;;;;0.66;75.03;101084.81;1788836;80;20994;-70
2022/02/24 03:15:56;;;;;;;29.10;11.48;;;;;;;0.66;75.06;101076.94;1788941;80;20971;-70
2022/02/24 03:18:22;;;;;;;25.08;11.63;;;;;;;0.65;75.09;101069.98;1788805;80;21142;-70
2022/02/24 03:20:48;;;;;;;30.02;11.70;;;;;;;0.61;75.10;101073.72;1788657;80;21527;-70
2022/02/24 03:23:14;;;;;;;27.50;10.18;;;;;;;0.58;75.14;101073.91;1788173;80;21688;-70
2022/02/24 03:25:40;;;;;;;28.00;10.68;;;;;;;0.53;75.17;101068.92;1787390;80;21522;-70
2022/02/24 03:28:06;;;;;;;29.42;10.90;;;;;;;0.49;75.19;101060.38;1784132;80;21010;-70
2022/02/24 03:30:34;;;;;;;23.92;9.33;;;;;;;0.44;75.22;101062.45;1784523;80;21143;-70
2022/02/24 03:33:01;;;;;;;29.15;9.60;;;;;;;0.40;75.22;101054.84;1784112;80;20967;-70
2022/02/24 03:35:27;;;;;;;22.20;8.40;;;;;;;0.34;75.24;101048.19;1784316;80;20995;-70
2022/02/24 03:37:53;;;;;;;46.63;15.63;;;;;;;0.31;75.26;101053.61;1784525;80;21034;-70
2022/02/24 03:40:19;;;;;;;26.55;9.98;;;;;;;0.30;75.29;101054.53;1784168;80;20864;-70
2022/02/24 03:42:46;;;;;;;28.32;9.50;;;;;;;0.28;75.33;101053.76;1784510;80;21139;-70
2022/02/24 03:45:12;;;;;;;30.27;10.03;;;;;;;0.26;75.37;101045.15;1784240;80;21472;-70
2022/02/24 03:47:38;;;;;;;21.02;10.43;;;;;;;0.22;75.41;101043.63;1789000;79;21635;-69
2022/02/24 03:50:05;;;;;;;26.50;9.33;;;;;;;0.18;75.45;101044.73;1790469;80;20959;-69
2022/02/24 03:52:31;;;;;;;31.68;11.45;;;;;;;0.14;75.49;101035.35;1810139;78;21027;-70
2022/02/24 03:54:57;;;;;;;33.53;11.90;;;;;;;0.10;75.50;101033.87;1822805;78;21487;-69
2022/02/24 03:57:23;;;;;;;24.00;10.50;;;;;;;0.07;75.51;101030.08;1810228;78;21003;-70
2022/02/24 03:59:49;;;;;;;32.90;9.88;;;;;;;0.04;75.55;101029.41;1788392;80;21024;-70
2022/02/24 04:02:15;;;;;;;26.80;11.00;;;;;;;0.00;75.58;101023.53;1754186;80;21028;-69
2022/02/24 04:04:42;;;;;;;35.05;10.93;;;;;;;-0.01;75.60;101025.77;1752985;80;21065;-70
2022/02/24 04:07:08;;;;;;;33.02;10.55;;;;;;;-0.02;75.62;101020.13;1750077;82;21123;-69
2022/02/24 04:09:35;;;;;;;22.13;9.50;;;;;;;-0.05;75.65;101016.37;1755038;81;21057;-69
2022/02/24 04:12:02;;;;;;;26.40;9.28;;;;;;;-0.08;75.67;101021.80;1755430;81;21014;-69
2022/02/24 04:14:28;;;;;;;30.35;10.25;;;;;;;-0.08;75.71;101019.18;1751953;81;21037;-69
2022/02/24 04:16:54;;;;;;;27.25;9.88;;;;;;;-0.08;75.77;101019.18;1750082;82;21052;-69
2022/02/24 04:19:20;;;;;;;32.83;11.03;;;;;;;-0.08;75.78;101013.94;1751799;80;21121;-69
2022/02/24 04:21:46;;;;;;;35.63;10.35;;;;;;;-0.10;75.83;101012.70;1750650;80;21023;-69
2022/02/24 04:24:12;;;;;;;33.60;12.18;;;;;;;-0.15;75.85;101000.80;1749744;82;20985;-69
2022/02/24 04:26:38;;;;;;;33.45;11.33;;;;;;;-0.19;75.89;100998.82;1749853;82;20958;-69
2022/02/24 04:29:04;;;;;;;31.85;10.03;;;;;;;-0.23;75.92;100992.06;1749178;80;21784;-70
2022/02/24 04:31:30;;;;;;;27.80;11.08;;;;;;;-0.23;75.97;100989.44;1770526;80;21785;-70
2022/02/24 04:33:56;;;;;;;24.57;10.80;;;;;;;-0.24;75.98;100984.27;1777963;79;20930;-69
2022/02/24 04:36:26;;;;;;;26.68;12.73;;;;;;;-0.23;76.01;100980.73;1756146;80;21084;-69
2022/02/24 04:38:50;;;;;;;30.70;12.75;;;;;;;-0.24;76.02;100982.50;1757993;80;22103;-69
2022/02/24 04:41:16;;;;;;;29.10;11.05;;;;;;;-0.25;76.05;100972.13;1783826;80;21503;-70
2022/02/24 04:43:42;;;;;;;35.17;12.65;;;;;;;-0.25;76.07;100973.43;1783217;80;21867;-69
2022/02/24 04:46:08;;;;;;;29.75;12.73;;;;;;;-0.29;76.10;100973.22;1783661;80;21516;-69
2022/02/24 04:48:34;;;;;;;27.42;11.00;;;;;;;-0.33;76.11;100967.77;1783939;80;21473;-70
2022/02/24 04:51:00;;;;;;;34.05;12.95;;;;;;;-0.35;76.17;100968.34;1783860;80;21044;-71
2022/02/24 04:53:26;;;;;;;37.00;14.40;;;;;;;-0.36;76.21;100970.11;1780789;80;20917;-70
2022/02/24 04:55:53;;;;;;;31.15;12.30;;;;;;;-0.35;76.23;100964.41;1780675;79;21139;-70
2022/02/24 04:58:20;;;;;;;31.05;13.40;;;;;;;-0.37;76.28;100961.02;1750036;80;21061;-70
2022/02/24 05:00:46;;;;;;;33.90;13.20;;;;;;;-0.41;76.31;100955.56;1753586;81;21400;-70
2022/02/24 05:03:12;;;;;;;40.38;13.62;;;;;;;-0.44;76.34;100958.36;1757484;81;21685;-70
2022/02/24 05:05:39;;;;;;;32.90;13.30;;;;;;;-0.47;76.38;100953.30;1757986;81;21629;-70
2022/02/24 05:08:05;;;;;;;32.03;13.48;;;;;;;-0.48;76.40;100955.53;1740509;81;21286;-70
2022/02/24 05:10:31;;;;;;;31.65;12.58;;;;;;;-0.50;76.44;100955.63;1755975;81;20961;-70
2022/02/24 05:12:57;;;;;;;31.15;11.22;;;;;;;-0.50;76.46;100963.49;1757661;81;21554;-70
2022/02/24 05:15:24;;;;;;;23.18;9.98;;;;;;;-0.49;76.48;100960.41;1757290;81;21515;-70
2022/02/24 05:17:50;;;;;;;29.00;11.90;;;;;;;-0.47;76.50;100952.84;1757915;81;21577;-70
2022/02/24 05:20:16;;;;;;;30.88;11.70;;;;;;;-0.44;76.51;100958.36;1757324;81;21601;-70
2022/02/24 05:22:43;;;;;;;36.60;12.90;;;;;;;-0.41;76.55;100960.34;1757500;81;21580;-70
2022/02/24 05:25:15;;;;;;;24.92;11.28;;;;;;;-0.40;76.57;100952.88;1757754;81;21001;-70
2022/02/24 05:27:43;;;;;;;32.98;15.15;;;;;;;-0.37;76.61;100955.77;1757547;81;21522;-70
2022/02/24 05:30:12;;;;;;;36.83;16.48;;;;;;;-0.35;76.64;100947.38;1757927;81;21057;-70
2022/02/24 05:32:39;;;;;;;34.98;12.47;;;;;;;-0.33;76.67;100944.19;1723288;83;21261;-71
2022/02/24 05:35:06;;;;;;;28.85;11.43;;;;;;;-0.31;76.70;100941.00;1722977;83;21081;-70
2022/02/24 05:37:34;;;;;;;31.95;11.68;;;;;;;-0.29;76.73;100940.47;1718779;82;21005;-68
2022/02/24 05:40:00;;;;;;;31.55;10.53;;;;;;;-0.28;76.73;100934.30;1721749;83;21124;-68
2022/02/24 05:42:26;;;;;;;29.98;12.03;;;;;;;-0.28;76.75;100922.52;1692950;84;21022;-70
2022/02/24 05:44:52;;;;;;;36.23;11.05;;;;;;;-0.24;76.78;100924.00;1703899;83;21658;-70
2022/02/24 05:47:18;;;;;;;35.70;11.28;;;;;;;-0.25;76.80;100927.58;1709821;83;21011;-68
2022/02/24 05:49:44;;;;;;;28.85;11.12;;;;;;;-0.26;76.82;100918.02;1704161;83;20996;-68
2022/02/24 05:52:10;;;;;;;43.00;14.95;;;;;;;-0.23;76.86;100917.83;1704435;83;21519;-68
2022/02/24 05:54:36;;;;;;;31.95;13.03;;;;;;;-0.20;76.86;100921.58;1703319;83;21109;-68
2022/02/24 05:57:03;;;;;;;31.15;12.85;;;;;;;-0.14;76.88;100918.63;1703312;83;21069;-68
2022/02/24 05:59:29;;;;;;;33.58;13.48;;;;;;;-0.09;76.89;100928.36;1704602;83;21078;-70
2022/02/24 06:01:56;;;;;;;50.33;20.15;;;;;;;-0.04;76.91;100931.11;1706735;83;21018;-70
2022/02/24 06:04:22;;;;;;;42.48;16.30;;;;;;;0.00;76.92;100927.84;1728566;83;21014;-70
2022/02/24 06:06:49;;;;;;;47.88;13.78;;;;;;;0.06;76.93;100927.47;1727904;83;21025;-70
2022/02/24 06:09:16;;;;;;;31.60;10.35;;;;;;;0.10;76.93;100923.74;1697268;83;21969;-70
2022/02/24 06:11:42;;;;;;;31.12;10.55;;;;;;;0.13;76.95;100918.31;1733615;81;21057;-70
2022/02/24 06:14:08;;;;;;;34.30;13.10;;;;;;;0.19;76.94;100915.31;1680906;84;21047;-70
2022/02/24 06:16:34;;;;;;;31.77;11.88;;;;;;;0.25;76.95;100907.07;1695922;84;20995;-70
2022/02/24 06:19:00;;;;;;;24.63;8.73;;;;;;;0.31;76.93;100902.80;1728791;83;21113;-70
2022/02/24 06:21:26;;;;;;;23.90;8.53;;;;;;;0.38;76.94;100901.48;1698549;84;21156;-70
2022/02/24 06:23:52;;;;;;;33.35;10.55;;;;;;;0.48;76.92;100896.05;1697996;84;21029;-70
2022/02/24 06:26:18;;;;;;;36.65;13.32;;;;;;;0.66;76.94;100895.85;1687566;83;20989;-70
2022/02/24 06:28:44;;;;;;;33.15;12.43;;;;;;;1.25;76.97;100886.36;1701137;83;21034;-71
2022/02/24 06:31:10;;;;;;;37.38;11.57;;;;;;;1.55;76.84;100884.00;1710069;83;21021;-70
2022/02/24 06:33:36;;;;;;;27.90;10.18;;;;;;;1.64;76.69;100879.44;1707072;82;21105;-70
2022/02/24 06:36:03;;;;;;;30.40;12.37;;;;;;;1.73;76.54;100877.50;1710828;82;21080;-70
2022/02/24 06:38:29;;;;;;;25.95;9.63;;;;;;;1.54;76.36;100870.48;1708648;84;21491;-70
2022/02/24 06:40:55;;;;;;;30.45;10.00;;;;;;;1.45;76.30;100872.77;1708337;84;21889;-70
2022/02/24 06:43:21;;;;;;;25.23;10.45;;;;;;;1.43;76.33;100867.25;1727938;81;21053;-70
2022/02/24 06:45:47;;;;;;;28.60;9.78;;;;;;;1.49;76.26;100870.31;1696548;84;21120;-70
2022/02/24 06:48:13;;;;;;;34.85;14.10;;;;;;;1.66;76.23;100868.34;1696195;83;21614;-70
2022/02/24 06:50:39;;;;;;;36.33;15.72;;;;;;;1.83;76.17;100866.77;1716706;83;21522;-70
2022/02/24 06:53:05;;;;;;;35.80;12.07;;;;;;;1.99;76.19;100871.36;1726204;83;21051;-70
2022/02/24 06:55:32;;;;;;;30.25;11.20;;;;;;;2.15;76.19;100865.41;1713672;83;20878;-70
2022/02/24 06:57:58;;;;;;;24.87;10.03;;;;;;;2.34;76.14;100864.53;1696312;83;21803;-70
2022/02/24 07:00:24;;;;;;;26.15;11.90;;;;;;;2.51;76.11;100861.56;1695210;83;21122;-70
2022/02/24 07:02:52;;;;;;;36.10;14.33;;;;;;;2.66;76.07;100864.06;1720058;83;21011;-70
2022/02/24 07:05:18;;;;;;;35.50;12.47;;;;;;;2.81;76.01;100859.04;1775145;80;21042;-70
2022/02/24 07:07:44;;;;;;;27.90;10.65;;;;;;;2.90;75.95;100859.69;1731113;80;21070;-71
2022/02/24 07:10:12;;;;;;;26.48;9.50;;;;;;;3.08;75.87;100864.95;1726377;82;21159;-71
2022/02/24 07:12:43;;;;;;;31.80;10.75;;;;;;;3.28;75.82;100866.13;1749717;82;21042;-71
2022/02/24 07:15:10;;;;;;;31.80;12.13;;;;;;;3.40;75.74;100871.37;1745650;81;21545;-71
2022/02/24 07:17:44;;;;;;;29.85;10.85;;;;;;;3.49;75.69;100874.63;1748558;81;21049;-69
2022/02/24 07:20:11;;;;;;;30.32;10.00;;;;;;;3.57;75.62;100873.22;1748393;81;21502;-69
2022/02/24 07:22:37;;;;;;;28.38;11.95;;;;;;;3.61;75.55;100876.00;1745315;80;21219;-69
2022/02/24 07:25:04;;;;;;;25.68;8.83;;;;;;;3.72;75.47;100877.37;1748572;82;21042;-69
2022/02/24 07:27:31;;;;;;;22.05;8.45;;;;;;;3.84;75.27;100875.11;1748048;82;21399;-71
2022/02/24 07:29:57;;;;;;;25.30;9.33;;;;;;;3.96;75.13;100878.16;1737578;81;21021;-71
2022/02/24 07:32:24;;;;;;;31.68;10.75;;;;;;;4.08;75.00;100879.03;1749610;81;21072;-71
2022/02/24 07:34:50;;;;;;;28.98;10.38;;;;;;;4.25;74.89;100871.52;1747573;80;21492;-71
2022/02/24 07:37:16;;;;;;;27.90;9.75;;;;;;;4.48;74.81;100869.23;1746498;82;22066;-71
2022/02/24 07:39:42;;;;;;;38.92;19.55;;;;;;;4.59;74.60;100868.88;1746709;81;21501;-71
2022/02/24 07:42:08;;;;;;;41.92;22.85;;;;;;;4.70;74.47;100860.95;1749337;82;21042;-72
2022/02/24 07:44:34;;;;;;;23.85;9.90;;;;;;;4.69;74.38;100861.91;1695750;84;21064;-71
2022/02/24 07:47:01;;;;;;;22.13;8.35;;;;;;;4.78;74.22;100863.37;1757188;80;21107;-71
2022/02/24 07:49:27;;;;;;;56.80;17.52;;;;;;;4.86;74.12;100851.69;1749555;82;21061;-72
2022/02/24 07:51:53;;;;;;;33.38;9.73;;;;;;;4.83;73.91;100851.09;1744996;81;21024;-71
2022/02/24 07:54:20;;;;;;;32.73;11.73;;;;;;;4.83;73.76;100848.45;1738390;81;21040;-71
2022/02/24 07:56:47;;;;;;;28.77;12.80;;;;;;;4.78;73.55;100844.03;1748316;80;21117;-71
2022/02/24 07:59:17;;;;;;;24.87;8.68;;;;;;;4.89;73.45;100837.41;1741463;81;21110;-71
2022/02/24 08:01:42;;;;;;;;;;;;;;;4.92;73.27;100831.88;1749331;80;21057;-71
2022/02/24 08:04:09;;;;;;;32.13;10.65;;;;;;;4.88;73.11;100828.64;1750442;81;20218;-71
2022/02/24 08:06:35;;;;;;;47.30;18.87;;;;;;;4.80;72.99;100830.20;1753614;81;21065;-71
2022/02/24 08:09:03;;;;;;;50.88;19.62;;;;;;;4.81;72.86;100826.13;1761309;80;21049;-71
2022/02/24 08:11:29;;;;;;;30.55;13.15;;;;;;;4.82;72.77;100829.61;1759706;81;21139;-71
2022/02/24 08:13:55;;;;;;;25.27;9.30;;;;;;;4.87;72.64;100817.70;1763931;81;20994;-71
2022/02/24 08:16:21;;;;;;;25.92;9.73;;;;;;;4.88;72.49;100812.78;1755570;81;21056;-71
2022/02/24 08:18:47;;;;;;;23.70;9.83;;;;;;;4.98;72.38;100812.39;1766484;80;21049;-71
2022/02/24 08:21:13;;;;;;;24.07;10.75;;;;;;;5.07;72.24;100813.44;1757557;81;20986;-72
2022/02/24 08:23:39;;;;;;;29.25;12.63;;;;;;;5.09;72.07;100796.98;1750902;81;21477;-71
2022/02/24 08:26:05;;;;;;;33.83;14.07;;;;;;;5.21;71.99;100793.32;1761419;80;21027;-71
2022/02/24 08:28:31;;;;;;;31.68;12.50;;;;;;;5.31;71.81;100791.59;1763172;81;21793;-71
2022/02/24 08:30:57;;;;;;;30.92;11.78;;;;;;;5.22;71.66;100788.40;1751588;81;20993;-71
2022/02/24 08:33:23;;;;;;;38.30;14.35;;;;;;;5.18;71.55;100779.52;1750613;80;21543;-71
2022/02/24 08:35:49;;;;;;;33.20;12.98;;;;;;;5.08;71.42;100778.12;1749813;82;21302;-71
2022/02/24 08:38:15;;;;;;;35.15;13.43;;;;;;;5.13;71.25;100774.62;1750489;82;20974;-72
2022/02/24 08:40:41;;;;;;;24.00;9.13;;;;;;;5.26;71.14;100766.52;1751503;80;21557;-72
2022/02/24 08:43:07;;;;;;;35.10;13.78;;;;;;;5.33;71.01;100760.59;1750674;82;21021;-72
2022/02/24 08:45:35;;;;;;;49.15;21.65;;;;;;;5.44;70.93;100758.38;1750784;82;21546;-72
2022/02/24 08:48:03;;;;;;;32.75;12.10;;;;;;;5.60;70.82;100752.63;1745016;82;21258;-72
2022/02/24 08:50:29;;;;;;;33.30;12.47;;;;;;;5.68;70.68;100749.70;1749163;82;21038;-72
2022/02/24 08:52:57;;;;;;;30.23;12.35;;;;;;;5.60;70.55;100756.59;1749644;82;20974;-72
2022/02/24 08:55:24;;;;;;;59.77;28.07;;;;;;;5.58;70.40;100764.67;1745974;82;21066;-71
2022/02/24 08:57:51;;;;;;;33.35;12.30;;;;;;;5.67;70.27;100757.75;1747414;80;21062;-71
2022/02/24 09:00:17;;;;;;;27.40;11.73;;;;;;;5.71;70.08;100761.81;1742306;81;21129;-72
2022/02/24 09:02:43;;;;;;;24.67;9.30;;;;;;;5.73;70.03;100755.93;1767578;80;21010;-72
2022/02/24 09:05:10;;;;;;;24.65;10.55;;;;;;;5.78;69.97;100757.69;1764456;80;20985;-72
2022/02/24 09:07:36;;;;;;;26.80;10.78;;;;;;;5.87;69.84;100759.59;1761965;81;21033;-72
2022/02/24 09:10:03;;;;;;;44.90;13.45;;;;;;;5.91;69.72;100739.84;1763746;81;21040;-72
2022/02/24 09:12:29;;;;;;;26.85;10.18;;;;;;;5.94;69.57;100751.00;1764197;81;21078;-72
2022/02/24 09:14:55;;;;;;;27.55;11.12;;;;;;;6.00;69.44;100737.71;1763691;81;20951;-72
2022/02/24 09:17:21;;;;;;;25.85;9.98;;;;;;;6.01;69.35;100728.81;1759935;81;21053;-71
2022/02/24 09:19:47;;;;;;;32.67;12.28;;;;;;;6.04;69.22;100729.86;1759812;80;20998;-72
2022/02/24 09:22:13;;;;;;;30.77;12.30;;;;;;;6.12;69.08;100718.13;1739957;81;21009;-71
2022/02/24 09:24:40;;;;;;;31.07;12.23;;;;;;;6.26;68.99;100707.66;1740755;80;21034;-71
2022/02/24 09:27:06;;;;;;;40.65;14.03;;;;;;;6.34;68.85;100715.26;1761586;81;21019;-71
2022/02/24 09:29:34;;;;;;;32.67;15.88;;;;;;;6.42;68.72;100707.97;1758822;81;21050;-72
2022/02/24 09:32:01;;;;;;;26.52;12.75;;;;;;;6.47;68.63;100700.47;1760743;81;21022;-72
2022/02/24 09:34:27;;;;;;;29.80;12.70;;;;;;;6.48;68.51;100695.01;1761801;79;20982;-72
2022/02/24 09:36:53;;;;;;;36.17;13.83;;;;;;;6.51;68.39;100688.11;1761311;81;21158;-72
2022/02/24 09:39:19;;;;;;;22.45;9.63;;;;;;;6.59;68.27;100679.97;1760048;81;21001;-72
2022/02/24 09:41:48;;;;;;;27.75;10.18;;;;;;;6.64;68.17;100669.80;1758608;81;20979;-72
2022/02/24 09:44:14;;;;;;;28.30;11.40;;;;;;;6.55;68.04;100664.83;1758822;81;21042;-71
2022/02/24 09:46:40;;;;;;;34.60;14.03;;;;;;;6.50;67.93;100658.64;1758689;81;21038;-72
2022/02/24 09:49:07;;;;;;;40.52;22.95;;;;;;;6.52;67.81;100647.41;1758558;80;21483;-71
2022/02/24 09:51:33;;;;;;;33.95;16.15;;;;;;;6.46;67.67;100641.34;1761453;80;21006;-70
2022/02/24 09:54:01;;;;;;;37.25;16.10;;;;;;;6.48;67.62;100640.70;1762125;80;20893;-71
2022/02/24 09:56:29;;;;;;;29.12;11.00;;;;;;;6.45;67.49;100626.89;1756438;80;21007;-69
2022/02/24 09:58:56;;;;;;;31.75;16.45;;;;;;;6.46;67.40;100622.80;1760964;80;21064;-71
2022/02/24 10:01:22;;;;;;;33.80;12.58;;;;;;;6.37;67.27;100605.06;1761655;80;21517;-70
2022/02/24 10:04:00;;;;;;;24.23;9.98;;;;;;;6.29;67.15;100606.74;1760152;80;21072;-71
2022/02/24 10:06:42;;;;;;;24.02;9.50;;;;;;;6.46;67.10;100596.30;1761003;80;21100;-71
2022/02/24 10:09:08;;;;;;;18.85;8.05;;;;;;;6.50;66.99;100596.38;1743348;79;21073;-70
2022/02/24 10:11:35;;;;;;;19.85;7.67;;;;;;;6.52;66.84;100595.74;1763165;81;21068;-70
2022/02/24 10:14:20;;;;;;;25.55;9.40;;;;;;;6.58;66.79;100576.30;1761758;80;21549;-71
2022/02/24 10:17:02;;;;;;;24.18;8.05;;;;;;;6.58;66.68;100567.84;1754135;81;21049;-71
2022/02/24 10:19:33;;;;;;;23.65;8.13;;;;;;;6.74;66.60;100569.93;1763131;81;21509;-71
2022/02/24 10:22:11;;;;;;;17.65;7.15;;;;;;;6.84;66.46;100566.78;1762314;80;21550;-71
2022/02/24 10:24:42;;;;;;;23.92;8.45;;;;;;;6.93;66.38;100564.10;1763249;81;21629;-70
2022/02/24 10:27:23;;;;;;;17.80;7.75;;;;;;;6.97;66.22;100556.70;1763331;81;21261;-71
2022/02/24 10:30:16;;;;;;;20.45;6.00;;;;;;;6.96;66.06;100546.61;1762847;80;21605;-71
2022/02/24 10:32:49;;;;;;;18.02;6.17;;;;;;;7.02;65.92;100537.23;1763193;81;21026;-70
2022/02/24 10:35:40;;;;;;;14.03;6.20;;;;;;;7.13;65.74;100541.05;1762103;81;20993;-71
2022/02/24 10:38:13;;;;;;;20.43;5.83;;;;;;;7.24;65.59;100542.20;1762805;81;21021;-70
2022/02/24 10:40:49;;;;;;;14.55;6.00;;;;;;;7.27;65.43;100532.63;1758228;79;21509;-71
2022/02/24 10:43:22;;;;;;;17.82;7.03;;;;;;;7.26;65.25;100528.29;1762745;81;21056;-70
2022/02/24 10:46:08;;;;;;;16.75;6.05;;;;;;;7.36;65.15;100518.95;1759794;81;21033;-71
2022/02/24 10:48:55;;;;;;;14.30;5.65;;;;;;;7.51;65.02;100507.72;1763171;81;21489;-71
2022/02/24 10:51:33;;;;;;;13.55;5.97;;;;;;;7.56;64.84;100507.29;1751007;81;21092;-71
2022/02/24 10:54:10;;;;;;;14.13;6.30;;;;;;;7.56;64.65;100503.31;1762205;81;21313;-71
2022/02/24 10:56:39;;;;;;;12.88;6.05;;;;;;;7.51;64.39;100501.09;1762695;80;21481;-71
2022/02/24 10:59:05;;;;;;;15.63;6.47;;;;;;;7.52;64.18;100490.83;1762885;79;21018;-71
2022/02/24 11:01:31;;;;;;;16.87;5.75;;;;;;;7.61;64.07;100489.09;1761752;79;20997;-71
2022/02/24 11:04:03;;;;;;;14.83;6.50;;;;;;;7.66;63.85;100482.02;1749506;81;21443;-71
2022/02/24 11:06:36;;;;;;;15.50;6.42;;;;;;;7.60;63.65;100481.29;1749173;81;21889;-71
2022/02/24 11:09:06;;;;;;;19.42;7.10;;;;;;;7.63;63.56;100475.68;1749179;80;20998;-70
2022/02/24 11:11:35;;;;;;;21.37;7.05;;;;;;;7.65;63.43;100469.72;1750010;82;21108;-71
2022/02/24 11:14:05;;;;;;;14.18;6.30;;;;;;;7.68;63.36;100462.78;1743535;82;21061;-71
2022/02/24 11:16:31;;;;;;;16.32;6.30;;;;;;;7.76;63.27;100462.39;1745573;80;21033;-71
2022/02/24 11:18:57;;;;;;;16.52;6.03;;;;;;;7.90;63.18;100457.05;1747475;82;21122;-71
2022/02/24 11:21:24;;;;;;;15.13;5.75;;;;;;;8.04;63.07;100457.36;1747162;82;21040;-71